Time,TemperatureF,DewpointF,PressureIn,WindDirection,WindDirectionDegrees,WindSpeedMPH,WindSpeedGustMPH,Humidity,HourlyPrecipIn,Conditions,Clouds,dailyrainin,SoftwareType,DateUTC
2013-01-14 00:05:00,58.6,57.5,30.12,SE,142,2.0,13.0,96,0.00,,,0.03,Wunderground v.1.15,2013-01-14 05:05:00,
2013-01-14 00:15:00,58.6,57.5,30.13,South,184,3.0,9.0,96,0.00,,,0.04,Wunderground v.1.15,2013-01-14 05:15:00,
2013-01-14 00:20:00,58.5,57.4,30.14,South,186,2.0,2.0,96,0.00,,,0.04,Wunderground v.1.15,2013-01-14 05:20:00,
2013-01-14 00:25:00,58.5,57.7,30.14,South,185,1.0,4.0,97,0.00,,,0.04,Wunderground v.1.15,2013-01-14 05:25:00,
2013-01-14 00:30:00,58.5,57.7,30.14,South,179,1.0,1.0,97,0.00,,,0.04,Wunderground v.1.15,2013-01-14 05:30:00,
2013-01-14 00:35:00,58.5,57.7,30.14,South,184,1.0,9.0,97,0.04,,,0.05,Wunderground v.1.15,2013-01-14 05:35:00,
2013-01-14 00:40:00,58.4,57.6,30.14,SSW,198,1.0,9.0,97,0.07,,,0.05,Wunderground v.1.15,2013-01-14 05:40:00,
2013-01-14 00:45:00,58.4,57.6,30.14,South,186,1.0,9.0,97,0.07,,,0.06,Wunderground v.1.15,2013-01-14 05:45:00,
2013-01-14 00:50:00,58.4,57.6,30.14,WSW,240,1.0,1.0,97,0.06,,,0.06,Wunderground v.1.15,2013-01-14 05:50:00,
2013-01-14 00:55:00,58.3,57.5,30.15,WSW,251,0.0,9.0,97,0.26,,,0.00,Wunderground v.1.15,2013-01-14 05:55:00,
2013-01-14 01:00:00,58.2,57.4,30.14,WNW,297,0.0,9.0,97,0.86,,,0.05,Wunderground v.1.15,2013-01-14 06:00:00,
2013-01-14 01:05:00,58.1,57.3,30.14,WNW,296,0.0,9.0,97,0.27,,,0.07,Wunderground v.1.15,2013-01-14 06:05:00,
2013-01-14 01:15:00,58.2,57.6,30.14,SSW,198,1.0,5.0,98,0.23,,,0.13,Wunderground v.1.15,2013-01-14 06:15:00,
2013-01-14 01:20:00,58.2,57.6,30.15,NW,321,1.0,1.0,98,0.10,,,0.14,Wunderground v.1.15,2013-01-14 06:20:00,
2013-01-14 01:25:00,58.0,57.4,30.15,WNW,303,1.0,5.0,98,0.89,,,0.19,Wunderground v.1.15,2013-01-14 06:25:00,
2013-01-14 01:35:00,57.6,57.0,30.11,NNE,13,0.0,5.0,98,0.09,,,0.21,Wunderground v.1.15,2013-01-14 06:35:00,
2013-01-14 01:40:00,57.6,57.0,30.13,South,182,1.0,1.0,98,0.05,,,0.21,Wunderground v.1.15,2013-01-14 06:40:00,
2013-01-14 01:45:00,57.7,57.1,30.13,South,182,1.0,5.0,98,0.04,,,0.21,Wunderground v.1.15,2013-01-14 06:45:00,
2013-01-14 01:50:00,57.8,57.2,30.13,South,178,1.0,1.0,98,0.00,,,0.21,Wunderground v.1.15,2013-01-14 06:50:00,
2013-01-14 01:55:00,57.8,57.2,30.14,South,190,1.0,5.0,98,0.00,,,0.21,Wunderground v.1.15,2013-01-14 06:55:00,
2013-01-14 02:00:00,57.9,57.3,30.13,South,174,1.0,1.0,98,0.00,,,0.21,Wunderground v.1.15,2013-01-14 07:00:00,
2013-01-14 02:05:00,58.0,57.7,30.13,South,173,0.0,1.0,99,0.00,,,0.21,Wunderground v.1.15,2013-01-14 07:05:00,
2013-01-14 02:15:00,58.0,57.7,30.13,South,188,1.0,6.0,99,0.00,,,0.22,Wunderground v.1.15,2013-01-14 07:15:00,
2013-01-14 02:20:00,58.0,57.7,30.13,South,173,1.0,6.0,99,0.00,,,0.22,Wunderground v.1.15,2013-01-14 07:20:00,
2013-01-14 02:25:00,58.0,57.7,30.13,South,187,0.0,6.0,99,0.04,,,0.23,Wunderground v.1.15,2013-01-14 07:25:00,
2013-01-14 02:30:00,58.0,57.7,30.13,SSW,192,1.0,1.0,99,0.04,,,0.23,Wunderground v.1.15,2013-01-14 07:30:00,
2013-01-14 02:35:00,58.0,57.7,30.13,SSW,208,1.0,6.0,99,0.04,,,0.23,Wunderground v.1.15,2013-01-14 07:35:00,
2013-01-14 02:40:00,57.9,57.6,30.13,South,189,0.0,6.0,99,0.04,,,0.23,Wunderground v.1.15,2013-01-14 07:40:00,
2013-01-14 02:45:00,57.9,57.6,30.13,SSW,211,0.0,6.0,99,0.00,,,0.23,Wunderground v.1.15,2013-01-14 07:45:00,
2013-01-14 02:55:00,57.8,57.5,30.14,SSW,202,0.0,6.0,99,0.00,,,0.23,Wunderground v.1.15,2013-01-14 07:55:00,
2013-01-14 03:00:00,57.8,57.5,30.14,South,182,0.0,6.0,99,0.00,,,0.23,Wunderground v.1.15,2013-01-14 08:00:00,
2013-01-14 03:05:00,57.8,57.5,30.13,ESE,102,0.0,6.0,99,0.00,,,0.23,Wunderground v.1.15,2013-01-14 08:05:00,
2013-01-14 03:15:00,57.7,57.4,30.12,SSW,200,1.0,6.0,99,0.00,,,0.23,Wunderground v.1.15,2013-01-14 08:15:00,
2013-01-14 03:20:00,57.6,57.3,30.12,SSE,167,1.0,6.0,99,0.00,,,0.23,Wunderground v.1.15,2013-01-14 08:20:00,
2013-01-14 03:25:00,57.6,57.3,30.12,South,169,1.0,6.0,99,0.00,,,0.23,Wunderground v.1.15,2013-01-14 08:25:00,
2013-01-14 03:30:00,57.6,57.3,30.12,SSW,196,1.0,1.0,99,0.00,,,0.23,Wunderground v.1.15,2013-01-14 08:30:00,
2013-01-14 03:35:00,57.6,57.3,30.11,NE,38,2.0,4.0,99,0.00,,,0.23,Wunderground v.1.15,2013-01-14 08:35:00,
2013-01-14 03:40:00,57.6,57.3,30.11,SSE,156,2.0,6.0,99,0.00,,,0.23,Wunderground v.1.15,2013-01-14 08:40:00,
2013-01-14 03:45:00,57.5,57.2,30.11,SSE,165,1.0,6.0,99,0.00,,,0.23,Wunderground v.1.15,2013-01-14 08:45:00,
2013-01-14 03:50:00,57.5,57.2,30.11,SSW,209,1.0,1.0,99,0.00,,,0.23,Wunderground v.1.15,2013-01-14 08:50:00,
2013-01-14 04:00:00,57.5,57.2,30.11,South,182,1.0,6.0,99,0.00,,,0.23,Wunderground v.1.15,2013-01-14 09:00:00,
2013-01-14 04:05:00,57.5,57.2,30.10,SSW,197,2.0,6.0,99,0.00,,,0.23,Wunderground v.1.15,2013-01-14 09:05:00,
2013-01-14 04:15:00,57.5,57.2,30.11,South,187,1.0,10.0,99,0.00,,,0.23,Wunderground v.1.15,2013-01-14 09:15:00,
2013-01-14 04:20:00,57.5,57.2,30.11,SSE,153,1.0,1.0,99,0.00,,,0.23,Wunderground v.1.15,2013-01-14 09:20:00,
2013-01-14 04:25:00,57.5,57.2,30.11,SSW,209,1.0,10.0,99,0.00,,,0.23,Wunderground v.1.15,2013-01-14 09:25:00,
2013-01-14 04:35:00,57.5,57.2,30.10,South,176,1.0,10.0,99,0.00,,,0.23,Wunderground v.1.15,2013-01-14 09:35:00,
2013-01-14 04:40:00,57.5,57.2,30.10,SSE,157,1.0,10.0,99,0.00,,,0.23,Wunderground v.1.15,2013-01-14 09:40:00,
2013-01-14 04:45:00,57.5,57.2,30.10,SSE,154,1.0,10.0,99,0.00,,,0.23,Wunderground v.1.15,2013-01-14 09:45:00,
2013-01-14 04:50:00,57.5,57.2,30.10,South,182,1.0,1.0,99,0.00,,,0.23,Wunderground v.1.15,2013-01-14 09:50:00,
2013-01-14 04:55:00,57.5,57.2,30.10,North,355,1.0,10.0,99,0.00,,,0.23,Wunderground v.1.15,2013-01-14 09:55:00,
2013-01-14 05:00:00,57.5,57.2,30.10,SSE,159,1.0,1.0,99,0.00,,,0.23,Wunderground v.1.15,2013-01-14 10:00:00,
2013-01-14 05:05:00,57.5,57.2,30.10,SSE,168,1.0,1.0,99,0.00,,,0.23,Wunderground v.1.15,2013-01-14 10:05:00,
2013-01-14 05:15:00,57.5,57.2,30.10,South,188,1.0,5.0,99,0.00,,,0.23,Wunderground v.1.15,2013-01-14 10:15:00,
2013-01-14 05:25:00,57.6,57.3,30.09,South,171,1.0,6.0,99,0.00,,,0.23,Wunderground v.1.15,2013-01-14 10:25:00,
2013-01-14 05:30:00,57.6,57.3,30.09,South,173,1.0,1.0,99,0.00,,,0.23,Wunderground v.1.15,2013-01-14 10:30:00,
2013-01-14 05:35:00,57.6,57.3,30.09,South,173,1.0,6.0,99,0.00,,,0.23,Wunderground v.1.15,2013-01-14 10:35:00,
2013-01-14 05:40:00,57.6,57.3,30.09,South,180,0.0,6.0,99,0.00,,,0.23,Wunderground v.1.15,2013-01-14 10:40:00,
2013-01-14 05:45:00,57.6,57.3,30.10,SSE,166,0.0,6.0,99,0.00,,,0.23,Wunderground v.1.15,2013-01-14 10:45:00,
2013-01-14 05:55:00,57.6,57.3,30.10,SSW,201,1.0,6.0,99,0.00,,,0.23,Wunderground v.1.15,2013-01-14 10:55:00,
2013-01-14 06:00:00,57.6,57.3,30.10,SSE,161,0.0,6.0,99,0.00,,,0.23,Wunderground v.1.15,2013-01-14 11:00:00,
2013-01-14 06:05:00,57.6,57.3,30.10,South,175,0.0,6.0,99,0.00,,,0.23,Wunderground v.1.15,2013-01-14 11:05:00,
2013-01-14 06:15:00,57.7,57.4,30.10,SSE,161,0.0,7.0,99,0.00,,,0.23,Wunderground v.1.15,2013-01-14 11:15:00,
2013-01-14 06:20:00,57.6,57.3,30.10,South,174,1.0,1.0,99,0.00,,,0.23,Wunderground v.1.15,2013-01-14 11:20:00,
2013-01-14 06:25:00,57.7,57.4,30.11,SSE,155,1.0,7.0,99,0.00,,,0.23,Wunderground v.1.15,2013-01-14 11:25:00,
2013-01-14 06:30:00,57.7,57.4,30.12,SSW,192,0.0,7.0,99,0.00,,,0.23,Wunderground v.1.15,2013-01-14 11:30:00,
2013-01-14 06:40:00,57.7,57.4,30.11,South,186,0.0,7.0,99,0.00,,,0.23,Wunderground v.1.15,2013-01-14 11:40:00,
2013-01-14 06:45:00,57.7,57.4,30.12,South,188,0.0,7.0,99,0.00,,,0.23,Wunderground v.1.15,2013-01-14 11:45:00,
2013-01-14 06:50:00,57.7,57.4,30.12,South,185,0.0,7.0,99,0.00,,,0.23,Wunderground v.1.15,2013-01-14 11:50:00,
2013-01-14 06:55:00,57.7,57.4,30.12,WNW,286,1.0,7.0,99,0.00,,,0.23,Wunderground v.1.15,2013-01-14 11:55:00,
2013-01-14 07:00:00,57.7,57.4,30.13,SSE,158,0.0,7.0,99,0.00,,,0.23,Wunderground v.1.15,2013-01-14 12:00:00,
2013-01-14 07:05:00,57.7,57.4,30.13,SSE,159,0.0,7.0,99,0.00,,,0.23,Wunderground v.1.15,2013-01-14 12:05:00,
2013-01-14 07:15:00,57.7,57.4,30.13,SSE,159,0.0,4.0,99,0.00,,,0.23,Wunderground v.1.15,2013-01-14 12:15:00,
2013-01-14 07:20:00,57.7,57.4,30.13,South,187,0.0,4.0,99,0.00,,,0.23,Wunderground v.1.15,2013-01-14 12:20:00,
2013-01-14 07:25:00,57.7,57.4,30.12,South,187,0.0,4.0,99,0.00,,,0.23,Wunderground v.1.15,2013-01-14 12:25:00,
2013-01-14 07:30:00,57.7,57.4,30.13,South,187,0.0,4.0,99,0.00,,,0.23,Wunderground v.1.15,2013-01-14 12:30:00,
2013-01-14 07:35:00,57.7,57.4,30.13,South,188,0.0,4.0,99,0.00,,,0.23,Wunderground v.1.15,2013-01-14 12:35:00,
2013-01-14 07:40:00,57.7,57.4,30.14,South,188,0.0,4.0,99,0.00,,,0.23,Wunderground v.1.15,2013-01-14 12:40:00,
2013-01-14 07:50:00,57.5,57.2,30.15,South,188,0.0,4.0,99,0.00,,,0.23,Wunderground v.1.15,2013-01-14 12:50:00,
2013-01-14 07:55:00,57.4,57.1,30.15,NNW,348,0.0,4.0,99,0.00,,,0.23,Wunderground v.1.15,2013-01-14 12:55:00,
2013-01-14 08:00:00,56.9,56.6,30.15,NNW,348,1.0,1.0,99,0.00,,,0.23,Wunderground v.1.15,2013-01-14 13:00:00,
2013-01-14 08:05:00,56.3,55.7,30.14,NNW,348,1.0,1.0,98,0.00,,,0.23,Wunderground v.1.15,2013-01-14 13:05:00,
2013-01-14 08:15:00,55.5,54.9,30.15,NNW,348,1.0,5.0,98,0.00,,,0.24,Wunderground v.1.15,2013-01-14 13:15:00,
2013-01-14 08:25:00,54.8,54.2,30.16,NNW,348,0.0,3.0,98,0.00,,,0.24,Wunderground v.1.15,2013-01-14 13:25:00,
2013-01-14 08:30:00,54.5,53.9,30.16,NNW,348,0.0,5.0,98,0.00,,,0.24,Wunderground v.1.15,2013-01-14 13:30:00,
2013-01-14 08:35:00,54.5,54.2,30.17,NNW,348,1.0,5.0,99,0.00,,,0.24,Wunderground v.1.15,2013-01-14 13:35:00,
2013-01-14 08:40:00,54.1,53.5,30.17,NNW,348,1.0,5.0,98,0.00,,,0.24,Wunderground v.1.15,2013-01-14 13:40:00,
2013-01-14 08:50:00,53.2,52.7,30.17,NNW,346,3.0,3.0,98,0.00,,,0.25,Wunderground v.1.15,2013-01-14 13:50:00,
2013-01-14 08:55:00,53.1,52.6,30.17,NNW,346,1.0,5.0,98,0.00,,,0.25,Wunderground v.1.15,2013-01-14 13:55:00,
2013-01-14 09:00:00,53.0,52.7,30.17,NNW,346,0.0,5.0,99,0.00,,,0.25,Wunderground v.1.15,2013-01-14 14:00:00,
2013-01-14 09:05:00,52.9,52.4,30.18,NNW,346,2.0,5.0,98,0.00,,,0.25,Wunderground v.1.15,2013-01-14 14:05:00,
2013-01-14 09:15:00,52.4,51.9,30.18,North,355,3.0,6.0,98,0.00,,,0.26,Wunderground v.1.15,2013-01-14 14:15:00,
2013-01-14 09:20:00,52.2,51.7,30.18,North,355,2.0,2.0,98,0.00,,,0.26,Wunderground v.1.15,2013-01-14 14:20:00,
2013-01-14 09:25:00,52.1,51.8,30.18,North,350,2.0,6.0,99,0.00,,,0.26,Wunderground v.1.15,2013-01-14 14:25:00,
2013-01-14 09:35:00,51.9,51.6,30.18,North,350,0.0,6.0,99,0.00,,,0.26,Wunderground v.1.15,2013-01-14 14:35:00,
2013-01-14 09:40:00,51.8,51.3,30.18,North,350,0.0,6.0,98,0.00,,,0.26,Wunderground v.1.15,2013-01-14 14:40:00,
2013-01-14 09:45:00,51.8,51.5,30.18,North,350,0.0,6.0,99,0.00,,,0.27,Wunderground v.1.15,2013-01-14 14:45:00,
2013-01-14 09:55:00,51.8,51.5,30.20,North,350,1.0,6.0,99,0.11,,,0.29,Wunderground v.1.15,2013-01-14 14:55:00,
2013-01-14 10:00:00,51.6,51.3,30.19,North,351,3.0,3.0,99,0.45,,,0.31,Wunderground v.1.15,2013-01-14 15:00:00,
2013-01-14 10:05:00,51.2,50.7,30.19,North,360,3.0,3.0,98,0.20,,,0.33,Wunderground v.1.15,2013-01-14 15:05:00,
2013-01-14 10:15:00,50.7,50.4,30.19,North,355,3.0,7.0,99,0.12,,,0.35,Wunderground v.1.15,2013-01-14 15:15:00,
2013-01-14 10:20:00,50.4,49.9,30.19,North,355,2.0,7.0,98,0.23,,,0.37,Wunderground v.1.15,2013-01-14 15:20:00,
2013-01-14 10:30:00,50.4,50.1,30.19,North,360,2.0,7.0,99,0.12,,,0.39,Wunderground v.1.15,2013-01-14 15:30:00,
2013-01-14 10:35:00,50.2,49.9,30.19,North,360,3.0,7.0,99,0.07,,,0.40,Wunderground v.1.15,2013-01-14 15:35:00,
2013-01-14 10:40:00,49.8,49.3,30.19,NNE,14,3.0,7.0,98,0.32,,,0.42,Wunderground v.1.15,2013-01-14 15:40:00,
2013-01-14 10:45:00,49.6,49.3,30.19,North,10,4.0,7.0,99,0.21,,,0.44,Wunderground v.1.15,2013-01-14 15:45:00,
2013-01-14 10:50:00,49.3,48.8,30.19,North,355,4.0,7.0,98,0.31,,,0.47,Wunderground v.1.15,2013-01-14 15:50:00,
2013-01-14 11:00:00,49.0,48.7,30.20,North,5,4.0,7.0,99,0.16,,,0.50,Wunderground v.1.15,2013-01-14 16:00:00,
2013-01-14 11:05:00,48.5,48.0,30.20,North,360,5.0,7.0,98,0.13,,,0.52,Wunderground v.1.15,2013-01-14 16:05:00,
2013-01-14 11:15:00,47.8,47.3,30.19,North,360,5.0,9.0,98,0.29,,,0.55,Wunderground v.1.15,2013-01-14 16:15:00,
2013-01-14 11:25:00,47.6,47.1,30.18,North,5,5.0,9.0,98,0.12,,,0.57,Wunderground v.1.15,2013-01-14 16:25:00,
2013-01-14 11:30:00,47.9,47.6,30.18,North,9,4.0,9.0,99,0.06,,,0.57,Wunderground v.1.15,2013-01-14 16:30:00,
2013-01-14 11:40:00,47.9,47.6,30.17,North,360,4.0,4.0,99,0.08,,,0.59,Wunderground v.1.15,2013-01-14 16:40:00,
2013-01-14 11:50:00,48.1,47.8,30.17,North,5,4.0,9.0,99,0.08,,,0.60,Wunderground v.1.15,2013-01-14 16:50:00,
2013-01-14 11:55:00,47.9,47.6,30.17,North,360,4.0,9.0,99,0.11,,,0.61,Wunderground v.1.15,2013-01-14 16:55:00,
2013-01-14 12:00:00,47.8,47.5,30.17,North,355,4.0,9.0,99,0.20,,,0.63,Wunderground v.1.15,2013-01-14 17:00:00,
2013-01-14 12:05:00,47.7,47.4,30.17,North,350,5.0,9.0,99,0.15,,,0.64,Wunderground v.1.15,2013-01-14 17:05:00,
2013-01-14 12:15:00,47.5,47.2,30.16,North,355,4.0,8.0,99,0.09,,,0.65,Wunderground v.1.15,2013-01-14 17:15:00,
2013-01-14 12:20:00,47.6,47.3,30.16,North,355,3.0,3.0,99,0.25,,,0.67,Wunderground v.1.15,2013-01-14 17:20:00,
2013-01-14 12:25:00,47.7,47.4,30.15,North,355,1.0,8.0,99,0.13,,,0.68,Wunderground v.1.15,2013-01-14 17:25:00,
2013-01-14 12:30:00,47.9,47.6,30.15,North,355,1.0,1.0,99,0.10,,,0.69,Wunderground v.1.15,2013-01-14 17:30:00,
2013-01-14 12:40:00,47.8,47.5,30.15,North,355,3.0,8.0,99,0.08,,,0.70,Wunderground v.1.15,2013-01-14 17:40:00,
2013-01-14 12:45:00,47.7,47.4,30.15,North,351,4.0,8.0,99,0.19,,,0.72,Wunderground v.1.15,2013-01-14 17:45:00,
2013-01-14 12:51:00,47.2,46.9,30.15,North,355,6.0,6.0,99,0.38,,,0.74,Wunderground v.1.15,2013-01-14 17:51:00,
2013-01-14 13:00:00,46.6,46.3,30.15,North,349,5.0,8.0,99,0.27,,,0.80,Wunderground v.1.15,2013-01-14 18:00:00,
2013-01-14 13:05:00,46.6,46.3,30.15,North,355,5.0,8.0,99,0.42,,,0.83,Wunderground v.1.15,2013-01-14 18:05:00,
2013-01-14 13:15:00,46.6,46.3,30.15,North,355,3.0,8.0,99,0.69,,,0.92,Wunderground v.1.15,2013-01-14 18:15:00,
2013-01-14 13:25:00,47.0,46.7,30.14,North,355,0.0,8.0,99,0.56,,,1.01,Wunderground v.1.15,2013-01-14 18:25:00,
2013-01-14 13:35:00,47.4,47.1,30.16,SSW,205,1.0,8.0,99,0.11,,,1.04,Wunderground v.1.15,2013-01-14 18:35:00,
2013-01-14 13:40:00,47.0,46.7,30.17,NW,307,4.0,8.0,99,0.11,,,1.04,Wunderground v.1.15,2013-01-14 18:40:00,
2013-01-14 13:45:00,46.7,46.4,30.16,North,360,5.0,8.0,99,0.70,,,1.08,Wunderground v.1.15,2013-01-14 18:45:00,
2013-01-14 13:50:00,46.7,46.4,30.16,North,355,4.0,4.0,99,0.29,,,1.10,Wunderground v.1.15,2013-01-14 18:50:00,
2013-01-14 13:55:00,46.9,46.6,30.15,North,355,3.0,8.0,99,0.48,,,1.15,Wunderground v.1.15,2013-01-14 18:55:00,
2013-01-14 14:00:00,47.3,47.0,30.16,North,355,2.0,2.0,99,0.36,,,1.18,Wunderground v.1.15,2013-01-14 19:00:00,
2013-01-14 14:06:00,47.8,47.5,30.16,North,355,1.0,2.0,99,0.60,,,1.23,Wunderground v.1.15,2013-01-14 19:06:00,
2013-01-14 14:15:00,48.1,47.8,30.15,North,355,0.0,1.0,99,0.25,,,1.33,Wunderground v.1.15,2013-01-14 19:15:00,
2013-01-14 14:20:00,48.2,47.9,30.15,North,355,1.0,1.0,99,0.23,,,1.35,Wunderground v.1.15,2013-01-14 19:20:00,
2013-01-14 14:30:00,48.5,48.2,30.16,North,355,0.0,5.0,99,0.30,,,1.41,Wunderground v.1.15,2013-01-14 19:30:00,
2013-01-14 14:35:00,48.6,48.3,30.15,North,355,0.0,5.0,99,0.23,,,1.43,Wunderground v.1.15,2013-01-14 19:35:00,
2013-01-14 14:40:00,48.8,48.5,30.15,North,355,0.0,5.0,99,0.18,,,1.45,Wunderground v.1.15,2013-01-14 19:40:00,
2013-01-14 14:45:00,49.1,48.8,30.16,North,355,0.0,5.0,99,0.15,,,1.46,Wunderground v.1.15,2013-01-14 19:45:00,
2013-01-14 14:50:00,48.8,48.5,30.16,North,355,0.0,5.0,99,0.10,,,1.47,Wunderground v.1.15,2013-01-14 19:50:00,
2013-01-14 15:00:00,48.6,48.3,30.15,SSW,211,0.0,5.0,99,0.12,,,1.50,Wunderground v.1.15,2013-01-14 20:00:00,
2013-01-14 15:05:00,48.6,48.3,30.16,SSW,211,0.0,5.0,99,0.11,,,1.51,Wunderground v.1.15,2013-01-14 20:05:00,
2013-01-14 15:15:00,48.1,47.8,30.17,NNW,336,1.0,4.0,99,0.05,,,1.52,Wunderground v.1.15,2013-01-14 20:15:00,
2013-01-14 15:20:00,47.8,47.5,30.17,NNW,336,1.0,4.0,99,0.22,,,1.54,Wunderground v.1.15,2013-01-14 20:20:00,
2013-01-14 15:25:00,47.6,47.3,30.16,NNW,336,1.0,4.0,99,0.18,,,1.56,Wunderground v.1.15,2013-01-14 20:25:00,
2013-01-14 15:35:00,47.6,47.3,30.17,NNW,348,1.0,4.0,99,0.28,,,1.59,Wunderground v.1.15,2013-01-14 20:35:00,
2013-01-14 15:40:00,47.7,47.4,30.17,NNW,347,1.0,1.0,99,0.26,,,1.61,Wunderground v.1.15,2013-01-14 20:40:00,
2013-01-14 15:45:00,47.6,47.3,30.18,SSW,208,1.0,4.0,99,0.16,,,1.63,Wunderground v.1.15,2013-01-14 20:45:00,
2013-01-14 15:55:00,48.0,47.7,30.17,SSW,211,0.0,4.0,99,0.23,,,1.68,Wunderground v.1.15,2013-01-14 20:55:00,
2013-01-14 16:00:00,48.1,47.8,30.17,WNW,294,0.0,4.0,99,0.16,,,1.69,Wunderground v.1.15,2013-01-14 21:00:00,
2013-01-14 16:05:00,48.2,47.9,30.18,WNW,294,0.0,4.0,99,0.08,,,1.70,Wunderground v.1.15,2013-01-14 21:05:00,
2013-01-14 16:15:00,47.8,47.5,30.18,WNW,294,0.0,3.0,99,0.23,,,1.74,Wunderground v.1.15,2013-01-14 21:15:00,
2013-01-14 16:20:00,47.5,47.2,30.18,WNW,295,0.0,3.0,99,0.11,,,1.75,Wunderground v.1.15,2013-01-14 21:20:00,
2013-01-14 16:25:00,47.4,47.1,30.18,WNW,295,0.0,3.0,99,0.09,,,1.75,Wunderground v.1.15,2013-01-14 21:25:00,
2013-01-14 16:30:00,48.0,47.7,30.19,WNW,294,0.0,3.0,99,0.07,,,1.76,Wunderground v.1.15,2013-01-14 21:30:00,
2013-01-14 16:35:00,47.8,47.5,30.19,WNW,294,0.0,3.0,99,0.07,,,1.76,Wunderground v.1.15,2013-01-14 21:35:00,
2013-01-14 16:40:00,47.6,47.3,30.19,WNW,294,0.0,3.0,99,0.16,,,1.78,Wunderground v.1.15,2013-01-14 21:40:00,
2013-01-14 16:50:00,49.0,48.7,30.19,WNW,294,0.0,3.0,99,0.15,,,1.80,Wunderground v.1.15,2013-01-14 21:50:00,
2013-01-14 17:00:00,48.7,48.7,30.19,WNW,294,0.0,3.0,100,0.09,,,1.81,Wunderground v.1.15,2013-01-14 22:00:00,
2013-01-14 17:05:00,49.0,49.0,30.19,WNW,294,0.0,3.0,100,0.09,,,1.82,Wunderground v.1.15,2013-01-14 22:05:00,
2013-01-14 17:15:00,49.8,49.8,30.19,WNW,294,0.0,1.0,100,0.04,,,1.82,Wunderground v.1.15,2013-01-14 22:15:00,
2013-01-14 17:20:00,50.0,50.0,30.19,WNW,294,0.0,1.0,100,0.00,,,1.82,Wunderground v.1.15,2013-01-14 22:20:00,
2013-01-14 17:30:00,49.9,49.9,30.19,WNW,294,0.0,1.0,100,0.00,,,1.83,Wunderground v.1.15,2013-01-14 22:30:00,
2013-01-14 17:35:00,49.9,49.9,30.19,WNW,294,0.0,1.0,100,0.05,,,1.83,Wunderground v.1.15,2013-01-14 22:35:00,
2013-01-14 17:40:00,49.8,49.8,30.19,WNW,294,0.0,1.0,100,0.05,,,1.84,Wunderground v.1.15,2013-01-14 22:40:00,
2013-01-14 17:45:00,49.7,49.7,30.19,West,263,0.0,1.0,100,0.05,,,1.84,Wunderground v.1.15,2013-01-14 22:45:00,
2013-01-14 17:50:00,49.4,49.4,30.19,West,263,0.0,1.0,100,0.04,,,1.84,Wunderground v.1.15,2013-01-14 22:50:00,
2013-01-14 17:55:00,48.8,48.8,30.20,West,263,0.0,1.0,100,0.00,,,1.84,Wunderground v.1.15,2013-01-14 22:55:00,
2013-01-14 18:00:00,48.4,48.1,30.21,SSW,209,0.0,2.0,99,0.00,,,1.85,Wunderground v.1.15,2013-01-14 23:00:00,
2013-01-14 18:05:00,48.3,48.0,30.20,SSW,209,1.0,2.0,99,0.18,,,1.86,Wunderground v.1.15,2013-01-14 23:05:00,
2013-01-14 18:15:00,49.6,49.6,30.20,SSW,209,0.0,5.0,100,0.12,,,1.88,Wunderground v.1.15,2013-01-14 23:15:00,
2013-01-14 18:20:00,49.2,48.9,30.22,SSW,209,0.0,5.0,99,0.06,,,1.88,Wunderground v.1.15,2013-01-14 23:20:00,
2013-01-14 18:25:00,48.8,48.8,30.23,North,5,1.0,5.0,100,0.04,,,1.88,Wunderground v.1.15,2013-01-14 23:25:00,
2013-01-14 18:30:00,48.4,48.1,30.23,North,360,3.0,5.0,99,0.00,,,1.88,Wunderground v.1.15,2013-01-14 23:30:00,
2013-01-14 18:35:00,47.8,47.5,30.24,North,5,6.0,6.0,99,0.00,,,1.88,Wunderground v.1.15,2013-01-14 23:35:00,
2013-01-14 18:45:00,46.7,46.4,30.24,North,355,8.0,13.0,99,0.00,,,1.89,Wunderground v.1.15,2013-01-14 23:45:00,
2013-01-14 18:55:00,45.6,45.3,30.24,North,360,9.0,11.0,99,0.04,,,1.90,Wunderground v.1.15,2013-01-14 23:55:00,
2013-01-14 19:00:00,45.0,44.7,30.25,NNE,22,9.0,9.0,99,0.04,,,1.90,Wunderground v.1.15,2013-01-15 00:00:00,
2013-01-14 19:05:00,44.5,44.2,30.25,NNE,12,8.0,9.0,99,0.04,,,1.91,Wunderground v.1.15,2013-01-15 00:05:00,
2013-01-14 19:15:00,44.5,44.2,30.25,North,9,7.0,20.0,99,0.10,,,1.91,Wunderground v.1.15,2013-01-15 00:15:00,
2013-01-14 19:20:00,44.5,44.2,30.25,NNE,16,6.0,20.0,99,0.24,,,1.92,Wunderground v.1.15,2013-01-15 00:20:00,
2013-01-14 19:30:00,44.6,44.3,30.25,North,360,5.0,20.0,99,0.14,,,1.96,Wunderground v.1.15,2013-01-15 00:30:00,
2013-01-14 19:35:00,44.7,44.4,30.25,North,5,5.0,20.0,99,0.16,,,1.97,Wunderground v.1.15,2013-01-15 00:35:00,
2013-01-14 19:40:00,45.0,44.7,30.25,North,360,5.0,20.0,99,0.20,,,1.99,Wunderground v.1.15,2013-01-15 00:40:00,
2013-01-14 19:45:00,45.0,44.7,30.25,North,360,5.0,20.0,99,0.11,,,1.99,Wunderground v.1.15,2013-01-15 00:45:00,
2013-01-14 19:50:00,45.0,44.7,30.25,North,355,5.0,20.0,99,0.11,,,2.00,Wunderground v.1.15,2013-01-15 00:50:00,
2013-01-14 20:00:00,45.0,44.7,30.25,North,5,5.0,20.0,99,0.05,,,2.01,Wunderground v.1.15,2013-01-15 01:00:00,
2013-01-14 20:05:00,45.0,44.7,30.25,North,5,6.0,20.0,99,0.05,,,2.01,Wunderground v.1.15,2013-01-15 01:05:00,
2013-01-14 20:15:00,44.7,44.4,30.25,North,5,7.0,11.0,99,0.04,,,2.02,Wunderground v.1.15,2013-01-15 01:15:00,
2013-01-14 20:25:00,44.3,44.0,30.25,North,5,9.0,18.0,99,0.08,,,2.03,Wunderground v.1.15,2013-01-15 01:25:00,
2013-01-14 20:30:00,44.0,43.7,30.25,North,355,11.0,11.0,99,0.06,,,2.03,Wunderground v.1.15,2013-01-15 01:30:00,
2013-01-14 20:35:00,43.8,43.5,30.25,North,5,11.0,18.0,99,0.05,,,2.04,Wunderground v.1.15,2013-01-15 01:35:00,
2013-01-14 20:40:00,43.6,43.3,30.26,North,350,12.0,19.0,99,0.09,,,2.05,Wunderground v.1.15,2013-01-15 01:40:00,
2013-01-14 20:45:00,43.4,43.1,30.26,North,355,12.0,19.0,99,0.17,,,2.06,Wunderground v.1.15,2013-01-15 01:45:00,
2013-01-14 20:50:00,43.2,42.9,30.27,North,360,12.0,18.0,99,0.12,,,2.07,Wunderground v.1.15,2013-01-15 01:50:00,
2013-01-14 21:00:00,42.9,42.6,30.27,North,360,15.0,15.0,99,0.06,,,2.08,Wunderground v.1.15,2013-01-15 02:00:00,
2013-01-14 21:05:00,42.7,42.4,30.28,NNW,348,15.0,15.0,99,0.14,,,2.09,Wunderground v.1.15,2013-01-15 02:05:00,
2013-01-14 21:15:00,42.4,42.1,30.27,North,360,13.0,24.0,99,0.16,,,2.11,Wunderground v.1.15,2013-01-15 02:15:00,
2013-01-14 21:20:00,42.2,41.9,30.28,North,355,12.0,12.0,99,0.09,,,2.11,Wunderground v.1.15,2013-01-15 02:20:00,
2013-01-14 21:25:00,42.2,41.9,30.28,North,360,12.0,24.0,99,0.05,,,2.11,Wunderground v.1.15,2013-01-15 02:25:00,
2013-01-14 21:30:00,42.1,41.8,30.29,North,355,11.0,24.0,99,0.05,,,2.12,Wunderground v.1.15,2013-01-15 02:30:00,
2013-01-14 21:35:00,42.1,41.8,30.29,NNW,342,10.0,24.0,99,0.05,,,2.12,Wunderground v.1.15,2013-01-15 02:35:00,
2013-01-14 21:40:00,42.0,41.7,30.29,North,355,9.0,24.0,99,0.04,,,2.12,Wunderground v.1.15,2013-01-15 02:40:00,
2013-01-14 21:45:00,42.0,41.7,30.29,NNE,13,9.0,24.0,99,0.00,,,2.13,Wunderground v.1.15,2013-01-15 02:45:00,
2013-01-14 21:55:00,42.0,41.7,30.28,NNW,345,8.0,24.0,99,0.00,,,2.13,Wunderground v.1.15,2013-01-15 02:55:00,
2013-01-14 22:00:00,41.9,41.6,30.29,North,355,8.0,8.0,99,0.00,,,2.13,Wunderground v.1.15,2013-01-15 03:00:00,
2013-01-14 22:05:00,41.9,41.6,30.30,NNW,346,8.0,10.0,99,0.00,,,2.13,Wunderground v.1.15,2013-01-15 03:05:00,
2013-01-14 22:15:00,42.0,41.7,30.29,NNW,339,8.0,13.0,99,0.00,,,2.13,Wunderground v.1.15,2013-01-15 03:15:00,
2013-01-14 22:20:00,42.0,41.7,30.28,North,360,8.0,13.0,99,0.00,,,2.13,Wunderground v.1.15,2013-01-15 03:20:00,
2013-01-14 22:25:00,41.9,41.6,30.28,North,355,8.0,13.0,99,0.00,,,2.13,Wunderground v.1.15,2013-01-15 03:25:00,
2013-01-14 22:35:00,41.8,41.5,30.28,North,360,6.0,13.0,99,0.00,,,2.13,Wunderground v.1.15,2013-01-15 03:35:00,
2013-01-14 22:40:00,41.8,41.5,30.28,WSW,255,6.0,6.0,99,0.00,,,2.13,Wunderground v.1.15,2013-01-15 03:40:00,
2013-01-14 22:50:00,41.7,41.4,30.27,WSW,250,4.0,4.0,99,0.00,,,2.13,Wunderground v.1.15,2013-01-15 03:50:00,
2013-01-14 22:55:00,41.7,41.4,30.27,North,355,1.0,13.0,99,0.00,,,2.13,Wunderground v.1.15,2013-01-15 03:55:00,
2013-01-14 23:00:00,41.8,41.5,30.26,North,355,2.0,13.0,99,0.00,,,2.13,Wunderground v.1.15,2013-01-15 04:00:00,
2013-01-14 23:05:00,41.9,41.6,30.26,North,355,3.0,13.0,99,0.00,,,2.13,Wunderground v.1.15,2013-01-15 04:05:00,
2013-01-14 23:15:00,41.9,41.6,30.26,North,355,2.0,8.0,99,0.00,,,2.13,Wunderground v.1.15,2013-01-15 04:15:00,
2013-01-14 23:20:00,41.9,41.6,30.25,North,355,0.0,8.0,99,0.00,,,2.13,Wunderground v.1.15,2013-01-15 04:20:00,
2013-01-14 23:25:00,41.8,41.5,30.25,North,355,0.0,8.0,99,0.00,,,2.13,Wunderground v.1.15,2013-01-15 04:25:00,
2013-01-14 23:35:00,41.7,41.4,30.26,NW,321,2.0,8.0,99,0.00,,,2.13,Wunderground v.1.15,2013-01-15 04:35:00,
2013-01-14 23:40:00,41.7,41.4,30.26,NW,320,2.0,2.0,99,0.00,,,2.13,Wunderground v.1.15,2013-01-15 04:40:00,
2013-01-14 23:45:00,41.6,41.3,30.26,NNW,333,1.0,8.0,99,0.00,,,2.13,Wunderground v.1.15,2013-01-15 04:45:00,
2013-01-14 23:50:00,41.6,41.3,30.26,NNE,28,0.0,8.0,99,0.00,,,2.13,Wunderground v.1.15,2013-01-15 04:50:00,